sensor_id;sensor_type;location;lat;lon;timestamp;temperature;humidity
6439;DHT22;3252;52.540;13.290;2023-03-16T00:00:22;2.10;99.90
6439;DHT22;3252;52.540;13.290;2023-03-16T00:02:26;2.10;99.90
6439;DHT22;3252;52.540;13.290;2023-03-16T00:04:28;2.00;99.90
6439;DHT22;3252;52.540;13.290;2023-03-16T00:06:43;2.00;99.90
6439;DHT22;3252;52.540;13.290;2023-03-16T00:08:45;2.00;99.90
6439;DHT22;3252;52.540;13.290;2023-03-16T00:10:47;2.00;99.90
6439;DHT22;3252;52.540;13.290;2023-03-16T00:12:49;2.00;99.90
6439;DHT22;3252;52.540;13.290;2023-03-16T00:14:53;2.00;99.90
6439;DHT22;3252;52.540;13.290;2023-03-16T00:16:56;2.00;99.90
6439;DHT22;3252;52.540;13.290;2023-03-16T00:18:59;2.00;99.90
6439;DHT22;3252;52.540;13.290;2023-03-16T00:21:03;2.00;99.90
6439;DHT22;3252;52.540;13.290;2023-03-16T00:23:06;1.90;99.90
6439;DHT22;3252;52.540;13.290;2023-03-16T00:25:10;1.90;99.90
6439;DHT22;3252;52.540;13.290;2023-03-16T00:27:13;1.90;99.90
6439;DHT22;3252;52.540;13.290;2023-03-16T00:29:16;1.90;99.90
6439;DHT22;3252;52.540;13.290;2023-03-16T00:31:19;1.90;99.90
6439;DHT22;3252;52.540;13.290;2023-03-16T00:33:24;1.90;99.90
6439;DHT22;3252;52.540;13.290;2023-03-16T00:35:28;1.90;99.90
6439;DHT22;3252;52.540;13.290;2023-03-16T00:37:34;1.80;99.90
6439;DHT22;3252;52.540;13.290;2023-03-16T00:39:39;1.80;99.90
6439;DHT22;3252;52.540;13.290;2023-03-16T00:41:41;1.80;99.90
6439;DHT22;3252;52.540;13.290;2023-03-16T00:43:44;1.70;99.90
6439;DHT22;3252;52.540;13.290;2023-03-16T00:45:46;1.70;99.90
6439;DHT22;3252;52.540;13.290;2023-03-16T00:47:48;1.70;99.90
6439;DHT22;3252;52.540;13.290;2023-03-16T00:49:54;1.70;99.90
6439;DHT22;3252;52.540;13.290;2023-03-16T00:51:58;1.60;99.90
6439;DHT22;3252;52.540;13.290;2023-03-16T00:54:00;1.70;99.90
6439;DHT22;3252;52.540;13.290;2023-03-16T00:56:05;1.70;99.90
6439;DHT22;3252;52.540;13.290;2023-03-16T00:58:07;1.70;99.90
6439;DHT22;3252;52.540;13.290;2023-03-16T01:00:10;1.70;99.90
6439;DHT22;3252;52.540;13.290;2023-03-16T01:02:17;1.70;99.90
6439;DHT22;3252;52.540;13.290;2023-03-16T01:04:23;1.70;99.90
6439;DHT22;3252;52.540;13.290;2023-03-16T01:06:27;1.70;99.90
6439;DHT22;3252;52.540;13.290;2023-03-16T01:08:30;1.60;99.90
6439;DHT22;3252;52.540;13.290;2023-03-16T01:10:35;1.60;99.90
6439;DHT22;3252;52.540;13.290;2023-03-16T01:12:38;1.60;99.90
6439;DHT22;3252;52.540;13.290;2023-03-16T01:14:41;1.60;99.90
6439;DHT22;3252;52.540;13.290;2023-03-16T01:16:45;1.60;99.90
6439;DHT22;3252;52.540;13.290;2023-03-16T01:18:48;1.60;99.90
6439;DHT22;3252;52.540;13.290;2023-03-16T01:20:52;1.60;99.90
6439;DHT22;3252;52.540;13.290;2023-03-16T01:22:55;1.60;99.90
6439;DHT22;3252;52.540;13.290;2023-03-16T01:24:58;1.50;99.90
6439;DHT22;3252;52.540;13.290;2023-03-16T01:27:02;1.50;99.90
6439;DHT22;3252;52.540;13.290;2023-03-16T01:29:05;1.50;99.90
6439;DHT22;3252;52.540;13.290;2023-03-16T01:31:10;1.50;99.90
6439;DHT22;3252;52.540;13.290;2023-03-16T01:33:14;1.60;99.90
6439;DHT22;3252;52.540;13.290;2023-03-16T01:35:17;1.60;99.90
6439;DHT22;3252;52.540;13.290;2023-03-16T01:37:21;1.60;99.90
6439;DHT22;3252;52.540;13.290;2023-03-16T01:39:33;1.60;99.90
6439;DHT22;3252;52.540;13.290;2023-03-16T01:41:38;1.60;99.90
6439;DHT22;3252;52.540;13.290;2023-03-16T01:43:42;1.60;99.90
6439;DHT22;3252;52.540;13.290;2023-03-16T01:46:09;1.60;99.90
6439;DHT22;3252;52.540;13.290;2023-03-16T01:48:24;1.50;99.90
6439;DHT22;3252;52.540;13.290;2023-03-16T01:50:27;1.50;99.90
6439;DHT22;3252;52.540;13.290;2023-03-16T01:52:33;1.50;99.90
6439;DHT22;3252;52.540;13.290;2023-03-16T01:54:39;1.60;99.90
6439;DHT22;3252;52.540;13.290;2023-03-16T01:56:48;1.50;99.90
6439;DHT22;3252;52.540;13.290;2023-03-16T01:58:56;1.50;99.90
6439;DHT22;3252;52.540;13.290;2023-03-16T02:01:00;1.50;99.90
6439;DHT22;3252;52.540;13.290;2023-03-16T02:03:06;1.50;99.90
6439;DHT22;3252;52.540;13.290;2023-03-16T02:05:31;1.50;99.90
6439;DHT22;3252;52.540;13.290;2023-03-16T02:07:40;1.50;99.90
6439;DHT22;3252;52.540;13.290;2023-03-16T02:09:45;1.40;99.90
6439;DHT22;3252;52.540;13.290;2023-03-16T02:11:51;1.50;99.90
6439;DHT22;3252;52.540;13.290;2023-03-16T02:13:58;1.50;99.90
6439;DHT22;3252;52.540;13.290;2023-03-16T02:16:05;1.50;99.90
6439;DHT22;3252;52.540;13.290;2023-03-16T02:18:08;1.50;99.90
6439;DHT22;3252;52.540;13.290;2023-03-16T02:20:19;1.40;99.90
6439;DHT22;3252;52.540;13.290;2023-03-16T02:22:23;1.40;99.90
6439;DHT22;3252;52.540;13.290;2023-03-16T02:24:26;1.40;99.90
6439;DHT22;3252;52.540;13.290;2023-03-16T02:26:34;1.40;99.90
6439;DHT22;3252;52.540;13.290;2023-03-16T02:28:44;1.50;99.90
6439;DHT22;3252;52.540;13.290;2023-03-16T02:30:50;1.50;99.90
6439;DHT22;3252;52.540;13.290;2023-03-16T02:32:53;1.40;99.90
6439;DHT22;3252;52.540;13.290;2023-03-16T02:34:58;1.50;99.90
6439;DHT22;3252;52.540;13.290;2023-03-16T02:37:02;1.50;99.90
6439;DHT22;3252;52.540;13.290;2023-03-16T02:39:05;1.50;99.90
6439;DHT22;3252;52.540;13.290;2023-03-16T02:41:18;1.50;99.90
6439;DHT22;3252;52.540;13.290;2023-03-16T02:43:29;1.50;99.90
6439;DHT22;3252;52.540;13.290;2023-03-16T02:45:59;1.50;99.90
6439;DHT22;3252;52.540;13.290;2023-03-16T02:48:09;1.50;99.90
6439;DHT22;3252;52.540;13.290;2023-03-16T02:50:14;1.50;99.90
6439;DHT22;3252;52.540;13.290;2023-03-16T02:52:18;1.50;99.90
6439;DHT22;3252;52.540;13.290;2023-03-16T02:54:20;1.50;99.90
6439;DHT22;3252;52.540;13.290;2023-03-16T02:56:22;1.50;99.90
6439;DHT22;3252;52.540;13.290;2023-03-16T02:58:24;1.40;99.90
6439;DHT22;3252;52.540;13.290;2023-03-16T03:00:27;1.40;99.90
6439;DHT22;3252;52.540;13.290;2023-03-16T03:02:31;1.40;99.90
6439;DHT22;3252;52.540;13.290;2023-03-16T03:04:33;1.40;99.90
6439;DHT22;3252;52.540;13.290;2023-03-16T03:06:35;1.40;99.90
6439;DHT22;3252;52.540;13.290;2023-03-16T03:08:38;1.50;99.90
6439;DHT22;3252;52.540;13.290;2023-03-16T03:10:39;1.50;99.90
6439;DHT22;3252;52.540;13.290;2023-03-16T03:12:42;1.50;99.90
6439;DHT22;3252;52.540;13.290;2023-03-16T03:14:49;1.50;99.90
6439;DHT22;3252;52.540;13.290;2023-03-16T03:16:54;1.50;99.90
6439;DHT22;3252;52.540;13.290;2023-03-16T03:18:58;1.50;99.90
6439;DHT22;3252;52.540;13.290;2023-03-16T03:21:03;1.50;99.90
6439;DHT22;3252;52.540;13.290;2023-03-16T03:23:08;1.50;99.90
6439;DHT22;3252;52.540;13.290;2023-03-16T03:25:11;1.50;99.90
6439;DHT22;3252;52.540;13.290;2023-03-16T03:27:13;1.50;99.90
6439;DHT22;3252;52.540;13.290;2023-03-16T03:29:17;1.40;99.90
6439;DHT22;3252;52.540;13.290;2023-03-16T03:31:21;1.50;99.90
6439;DHT22;3252;52.540;13.290;2023-03-16T03:33:25;1.50;99.90
6439;DHT22;3252;52.540;13.290;2023-03-16T03:35:29;1.50;99.90
6439;DHT22;3252;52.540;13.290;2023-03-16T03:37:31;1.50;99.90
6439;DHT22;3252;52.540;13.290;2023-03-16T03:39:34;1.40;99.90
6439;DHT22;3252;52.540;13.290;2023-03-16T03:41:36;1.40;99.90
6439;DHT22;3252;52.540;13.290;2023-03-16T03:43:40;1.40;99.90
6439;DHT22;3252;52.540;13.290;2023-03-16T03:45:48;1.40;99.90
6439;DHT22;3252;52.540;13.290;2023-03-16T03:47:51;1.40;99.90
6439;DHT22;3252;52.540;13.290;2023-03-16T03:49:56;1.40;99.90
6439;DHT22;3252;52.540;13.290;2023-03-16T03:52:00;1.40;99.90
6439;DHT22;3252;52.540;13.290;2023-03-16T03:54:05;1.40;99.90
6439;DHT22;3252;52.540;13.290;2023-03-16T03:56:27;1.40;99.90
6439;DHT22;3252;52.540;13.290;2023-03-16T03:58:30;1.40;99.90
6439;DHT22;3252;52.540;13.290;2023-03-16T04:00:32;1.30;99.90
6439;DHT22;3252;52.540;13.290;2023-03-16T04:02:35;1.30;99.90
6439;DHT22;3252;52.540;13.290;2023-03-16T04:04:40;1.30;99.90
6439;DHT22;3252;52.540;13.290;2023-03-16T04:06:45;1.30;99.90
6439;DHT22;3252;52.540;13.290;2023-03-16T04:08:49;1.30;99.90
6439;DHT22;3252;52.540;13.290;2023-03-16T04:10:57;1.30;99.90
6439;DHT22;3252;52.540;13.290;2023-03-16T04:12:59;1.30;99.90
6439;DHT22;3252;52.540;13.290;2023-03-16T04:15:07;1.30;99.90
6439;DHT22;3252;52.540;13.290;2023-03-16T04:17:18;1.30;99.90
6439;DHT22;3252;52.540;13.290;2023-03-16T04:19:22;1.30;99.90
6439;DHT22;3252;52.540;13.290;2023-03-16T04:21:26;1.30;99.90
6439;DHT22;3252;52.540;13.290;2023-03-16T04:23:28;1.30;99.90
6439;DHT22;3252;52.540;13.290;2023-03-16T04:25:34;1.30;99.90
6439;DHT22;3252;52.540;13.290;2023-03-16T04:27:39;1.30;99.90
6439;DHT22;3252;52.540;13.290;2023-03-16T04:29:42;1.30;99.90
6439;DHT22;3252;52.540;13.290;2023-03-16T04:31:44;1.30;99.90
6439;DHT22;3252;52.540;13.290;2023-03-16T04:33:48;1.30;99.90
6439;DHT22;3252;52.540;13.290;2023-03-16T04:35:51;1.30;99.90
6439;DHT22;3252;52.540;13.290;2023-03-16T04:37:55;1.30;99.90
6439;DHT22;3252;52.540;13.290;2023-03-16T04:40:05;1.30;99.90
6439;DHT22;3252;52.540;13.290;2023-03-16T04:42:11;1.30;99.90
6439;DHT22;3252;52.540;13.290;2023-03-16T04:44:13;1.30;99.90
6439;DHT22;3252;52.540;13.290;2023-03-16T04:46:15;1.30;99.90
6439;DHT22;3252;52.540;13.290;2023-03-16T04:48:18;1.30;99.90
6439;DHT22;3252;52.540;13.290;2023-03-16T04:50:20;1.30;99.90
6439;DHT22;3252;52.540;13.290;2023-03-16T04:52:26;1.30;99.90
6439;DHT22;3252;52.540;13.290;2023-03-16T04:54:29;1.30;99.90
6439;DHT22;3252;52.540;13.290;2023-03-16T04:56:32;1.30;99.90
6439;DHT22;3252;52.540;13.290;2023-03-16T04:58:39;1.20;99.90
6439;DHT22;3252;52.540;13.290;2023-03-16T05:00:42;1.20;99.90
6439;DHT22;3252;52.540;13.290;2023-03-16T05:02:53;1.20;99.90
6439;DHT22;3252;52.540;13.290;2023-03-16T05:04:58;1.20;99.90
6439;DHT22;3252;52.540;13.290;2023-03-16T05:07:00;1.20;99.90
6439;DHT22;3252;52.540;13.290;2023-03-16T05:09:07;1.20;99.90
6439;DHT22;3252;52.540;13.290;2023-03-16T05:11:12;1.20;99.90
6439;DHT22;3252;52.540;13.290;2023-03-16T05:13:24;1.20;99.90
6439;DHT22;3252;52.540;13.290;2023-03-16T05:15:29;1.20;99.90
6439;DHT22;3252;52.540;13.290;2023-03-16T05:17:45;1.10;99.90
6439;DHT22;3252;52.540;13.290;2023-03-16T05:19:48;1.10;99.90
6439;DHT22;3252;52.540;13.290;2023-03-16T05:21:51;1.10;99.90
6439;DHT22;3252;52.540;13.290;2023-03-16T05:23:53;1.10;99.90
6439;DHT22;3252;52.540;13.290;2023-03-16T05:25:56;1.10;99.90
6439;DHT22;3252;52.540;13.290;2023-03-16T05:28:03;1.10;99.90
6439;DHT22;3252;52.540;13.290;2023-03-16T05:30:16;1.10;99.90
6439;DHT22;3252;52.540;13.290;2023-03-16T05:32:21;1.10;99.90
6439;DHT22;3252;52.540;13.290;2023-03-16T05:34:25;1.10;99.90
6439;DHT22;3252;52.540;13.290;2023-03-16T05:36:28;1.10;99.90
6439;DHT22;3252;52.540;13.290;2023-03-16T05:38:38;1.10;99.90
6439;DHT22;3252;52.540;13.290;2023-03-16T05:40:44;1.10;99.90
6439;DHT22;3252;52.540;13.290;2023-03-16T05:43:04;1.10;99.90
6439;DHT22;3252;52.540;13.290;2023-03-16T05:45:11;1.00;99.90
6439;DHT22;3252;52.540;13.290;2023-03-16T05:47:25;1.00;99.90
6439;DHT22;3252;52.540;13.290;2023-03-16T05:49:31;1.00;99.90
6439;DHT22;3252;52.540;13.290;2023-03-16T05:51:36;1.00;99.90
6439;DHT22;3252;52.540;13.290;2023-03-16T05:53:40;1.00;99.90
6439;DHT22;3252;52.540;13.290;2023-03-16T05:55:51;1.00;99.90
6439;DHT22;3252;52.540;13.290;2023-03-16T05:57:54;1.00;99.90
6439;DHT22;3252;52.540;13.290;2023-03-16T05:59:57;1.00;99.90
6439;DHT22;3252;52.540;13.290;2023-03-16T06:01:59;0.90;99.90
6439;DHT22;3252;52.540;13.290;2023-03-16T06:04:03;0.90;99.90
6439;DHT22;3252;52.540;13.290;2023-03-16T06:06:09;0.90;99.90
6439;DHT22;3252;52.540;13.290;2023-03-16T06:08:22;0.90;99.90
6439;DHT22;3252;52.540;13.290;2023-03-16T06:10:26;0.90;99.90
6439;DHT22;3252;52.540;13.290;2023-03-16T06:12:28;0.90;99.90
6439;DHT22;3252;52.540;13.290;2023-03-16T06:14:31;0.90;99.90
6439;DHT22;3252;52.540;13.290;2023-03-16T06:16:34;1.00;99.90
6439;DHT22;3252;52.540;13.290;2023-03-16T06:18:36;1.10;99.90
6439;DHT22;3252;52.540;13.290;2023-03-16T06:20:41;1.30;99.90
6439;DHT22;3252;52.540;13.290;2023-03-16T06:22:43;1.40;99.90
6439;DHT22;3252;52.540;13.290;2023-03-16T06:24:46;1.50;99.90
6439;DHT22;3252;52.540;13.290;2023-03-16T06:26:49;1.60;99.90
6439;DHT22;3252;52.540;13.290;2023-03-16T06:28:53;2.00;99.90
6439;DHT22;3252;52.540;13.290;2023-03-16T06:30:56;2.20;99.90
6439;DHT22;3252;52.540;13.290;2023-03-16T06:33:03;2.60;99.90
6439;DHT22;3252;52.540;13.290;2023-03-16T06:35:06;3.40;99.90
6439;DHT22;3252;52.540;13.290;2023-03-16T06:37:11;3.90;99.90
6439;DHT22;3252;52.540;13.290;2023-03-16T06:39:14;4.30;99.90
6439;DHT22;3252;52.540;13.290;2023-03-16T06:41:20;4.60;98.50
6439;DHT22;3252;52.540;13.290;2023-03-16T06:43:22;4.90;97.80
6439;DHT22;3252;52.540;13.290;2023-03-16T06:45:25;5.00;97.30
6439;DHT22;3252;52.540;13.290;2023-03-16T06:47:31;5.20;96.60
6439;DHT22;3252;52.540;13.290;2023-03-16T06:49:33;5.50;96.30
6439;DHT22;3252;52.540;13.290;2023-03-16T06:51:39;5.60;95.60
6439;DHT22;3252;52.540;13.290;2023-03-16T06:53:47;5.80;95.50
6439;DHT22;3252;52.540;13.290;2023-03-16T06:55:54;6.10;94.80
6439;DHT22;3252;52.540;13.290;2023-03-16T06:57:59;6.60;93.80
6439;DHT22;3252;52.540;13.290;2023-03-16T07:00:03;7.10;91.90
6439;DHT22;3252;52.540;13.290;2023-03-16T07:02:09;7.20;90.80
6439;DHT22;3252;52.540;13.290;2023-03-16T07:04:13;7.20;90.70
6439;DHT22;3252;52.540;13.290;2023-03-16T07:06:16;7.40;91.00
6439;DHT22;3252;52.540;13.290;2023-03-16T07:08:22;7.50;83.30
6439;DHT22;3252;52.540;13.290;2023-03-16T07:10:25;7.90;85.60
6439;DHT22;3252;52.540;13.290;2023-03-16T07:12:28;8.40;73.20
6439;DHT22;3252;52.540;13.290;2023-03-16T07:14:34;8.80;72.20
6439;DHT22;3252;52.540;13.290;2023-03-16T07:16:38;9.20;69.30
6439;DHT22;3252;52.540;13.290;2023-03-16T07:18:43;8.90;66.00
6439;DHT22;3252;52.540;13.290;2023-03-16T07:20:48;8.90;71.00
6439;DHT22;3252;52.540;13.290;2023-03-16T07:22:51;8.90;72.80
6439;DHT22;3252;52.540;13.290;2023-03-16T07:24:54;8.60;70.50
6439;DHT22;3252;52.540;13.290;2023-03-16T07:27:00;8.40;74.40
6439;DHT22;3252;52.540;13.290;2023-03-16T07:29:05;8.50;74.60
6439;DHT22;3252;52.540;13.290;2023-03-16T07:31:09;8.20;73.10
6439;DHT22;3252;52.540;13.290;2023-03-16T07:33:15;8.40;75.40
6439;DHT22;3252;52.540;13.290;2023-03-16T07:35:24;8.70;73.60
6439;DHT22;3252;52.540;13.290;2023-03-16T07:37:27;8.70;71.70
6439;DHT22;3252;52.540;13.290;2023-03-16T07:39:32;8.60;65.30
6439;DHT22;3252;52.540;13.290;2023-03-16T07:41:42;8.60;67.70
6439;DHT22;3252;52.540;13.290;2023-03-16T07:43:51;8.80;69.80
6439;DHT22;3252;52.540;13.290;2023-03-16T07:45:58;9.30;69.10
6439;DHT22;3252;52.540;13.290;2023-03-16T07:48:04;9.60;64.10
6439;DHT22;3252;52.540;13.290;2023-03-16T07:50:24;9.80;60.80
6439;DHT22;3252;52.540;13.290;2023-03-16T07:52:27;10.00;61.00
6439;DHT22;3252;52.540;13.290;2023-03-16T07:54:37;10.30;58.20
6439;DHT22;3252;52.540;13.290;2023-03-16T07:56:45;10.70;55.40
6439;DHT22;3252;52.540;13.290;2023-03-16T07:58:56;11.20;52.40
6439;DHT22;3252;52.540;13.290;2023-03-16T08:00:59;11.80;50.90
6439;DHT22;3252;52.540;13.290;2023-03-16T08:03:02;12.60;49.20
6439;DHT22;3252;52.540;13.290;2023-03-16T08:05:05;13.20;46.90
6439;DHT22;3252;52.540;13.290;2023-03-16T08:07:10;13.50;45.60
6439;DHT22;3252;52.540;13.290;2023-03-16T08:09:49;14.30;44.60
6439;DHT22;3252;52.540;13.290;2023-03-16T08:11:56;14.90;42.60
6439;DHT22;3252;52.540;13.290;2023-03-16T08:14:00;15.30;41.30
6439;DHT22;3252;52.540;13.290;2023-03-16T08:16:23;15.60;40.50
6439;DHT22;3252;52.540;13.290;2023-03-16T08:18:26;15.30;40.80
6439;DHT22;3252;52.540;13.290;2023-03-16T08:20:30;16.00;40.20
6439;DHT22;3252;52.540;13.290;2023-03-16T08:22:32;16.10;38.60
6439;DHT22;3252;52.540;13.290;2023-03-16T08:24:36;15.60;38.10
6439;DHT22;3252;52.540;13.290;2023-03-16T08:26:40;14.90;39.60
6439;DHT22;3252;52.540;13.290;2023-03-16T08:28:43;15.30;39.80
6439;DHT22;3252;52.540;13.290;2023-03-16T08:30:49;15.60;39.30
6439;DHT22;3252;52.540;13.290;2023-03-16T08:33:08;16.40;39.40
6439;DHT22;3252;52.540;13.290;2023-03-16T08:35:12;16.60;36.60
6439;DHT22;3252;52.540;13.290;2023-03-16T08:37:15;17.10;36.60
6439;DHT22;3252;52.540;13.290;2023-03-16T08:39:18;17.80;36.70
6439;DHT22;3252;52.540;13.290;2023-03-16T08:41:22;17.40;33.60
6439;DHT22;3252;52.540;13.290;2023-03-16T08:43:26;17.70;32.30
6439;DHT22;3252;52.540;13.290;2023-03-16T08:45:28;17.30;33.30
6439;DHT22;3252;52.540;13.290;2023-03-16T08:47:31;17.30;31.90
6439;DHT22;3252;52.540;13.290;2023-03-16T08:49:34;18.30;32.60
6439;DHT22;3252;52.540;13.290;2023-03-16T08:51:40;19.20;31.70
6439;DHT22;3252;52.540;13.290;2023-03-16T08:53:43;19.60;30.80
6439;DHT22;3252;52.540;13.290;2023-03-16T08:55:45;19.80;29.90
6439;DHT22;3252;52.540;13.290;2023-03-16T08:57:48;20.80;30.00
6439;DHT22;3252;52.540;13.290;2023-03-16T08:59:50;20.40;30.00
6439;DHT22;3252;52.540;13.290;2023-03-16T09:01:52;20.10;28.70
6439;DHT22;3252;52.540;13.290;2023-03-16T09:03:55;21.00;28.30
6439;DHT22;3252;52.540;13.290;2023-03-16T09:06:00;21.60;28.30
6439;DHT22;3252;52.540;13.290;2023-03-16T09:08:02;20.90;28.50
6439;DHT22;3252;52.540;13.290;2023-03-16T09:10:06;19.60;29.00
6439;DHT22;3252;52.540;13.290;2023-03-16T09:12:13;18.60;29.40
6439;DHT22;3252;52.540;13.290;2023-03-16T09:14:15;18.50;30.50
6439;DHT22;3252;52.540;13.290;2023-03-16T09:16:18;19.30;30.10
6439;DHT22;3252;52.540;13.290;2023-03-16T09:18:25;20.20;30.70
6439;DHT22;3252;52.540;13.290;2023-03-16T09:20:29;19.10;29.30
6439;DHT22;3252;52.540;13.290;2023-03-16T09:22:31;18.50;29.60
6439;DHT22;3252;52.540;13.290;2023-03-16T09:24:33;18.10;29.10
6439;DHT22;3252;52.540;13.290;2023-03-16T09:26:36;18.40;29.30
6439;DHT22;3252;52.540;13.290;2023-03-16T09:28:40;18.40;29.50
6439;DHT22;3252;52.540;13.290;2023-03-16T09:30:42;18.90;29.60
6439;DHT22;3252;52.540;13.290;2023-03-16T09:32:45;19.70;29.30
6439;DHT22;3252;52.540;13.290;2023-03-16T09:34:48;20.70;28.90
6439;DHT22;3252;52.540;13.290;2023-03-16T09:36:52;21.40;27.60
6439;DHT22;3252;52.540;13.290;2023-03-16T09:38:55;21.30;27.10
6439;DHT22;3252;52.540;13.290;2023-03-16T09:40:58;19.90;26.70
6439;DHT22;3252;52.540;13.290;2023-03-16T09:45:31;18.50;27.30
6439;DHT22;3252;52.540;13.290;2023-03-16T09:47:36;18.50;27.80
6439;DHT22;3252;52.540;13.290;2023-03-16T09:49:42;18.60;27.90
6439;DHT22;3252;52.540;13.290;2023-03-16T09:51:49;18.80;27.50
6439;DHT22;3252;52.540;13.290;2023-03-16T09:53:58;18.40;27.60
6439;DHT22;3252;52.540;13.290;2023-03-16T09:56:04;18.20;28.80
6439;DHT22;3252;52.540;13.290;2023-03-16T09:58:12;17.90;28.60
6439;DHT22;3252;52.540;13.290;2023-03-16T10:00:19;18.10;28.50
6439;DHT22;3252;52.540;13.290;2023-03-16T10:02:43;17.90;29.20
6439;DHT22;3252;52.540;13.290;2023-03-16T10:04:54;18.10;28.20
6439;DHT22;3252;52.540;13.290;2023-03-16T10:07:04;17.70;28.20
6439;DHT22;3252;52.540;13.290;2023-03-16T10:09:24;17.10;28.30
6439;DHT22;3252;52.540;13.290;2023-03-16T10:11:31;17.30;28.70
6439;DHT22;3252;52.540;13.290;2023-03-16T10:13:39;17.30;28.80
6439;DHT22;3252;52.540;13.290;2023-03-16T10:15:44;18.80;28.30
6439;DHT22;3252;52.540;13.290;2023-03-16T10:17:50;19.50;26.50
6439;DHT22;3252;52.540;13.290;2023-03-16T10:19:55;19.80;27.20
6439;DHT22;3252;52.540;13.290;2023-03-16T10:22:00;20.40;27.50
6439;DHT22;3252;52.540;13.290;2023-03-16T10:24:05;21.60;28.00
6439;DHT22;3252;52.540;13.290;2023-03-16T10:26:18;21.70;26.40
6439;DHT22;3252;52.540;13.290;2023-03-16T10:28:23;23.30;27.20
6439;DHT22;3252;52.540;13.290;2023-03-16T10:30:28;25.10;24.90
6439;DHT22;3252;52.540;13.290;2023-03-16T10:32:32;26.10;23.60
6439;DHT22;3252;52.540;13.290;2023-03-16T10:34:36;24.80;23.10
6439;DHT22;3252;52.540;13.290;2023-03-16T10:36:40;23.80;23.10
6439;DHT22;3252;52.540;13.290;2023-03-16T10:38:46;23.50;24.10
6439;DHT22;3252;52.540;13.290;2023-03-16T10:40:51;24.20;24.10
6439;DHT22;3252;52.540;13.290;2023-03-16T10:42:56;23.70;22.90
6439;DHT22;3252;52.540;13.290;2023-03-16T10:44:58;23.60;23.40
6439;DHT22;3252;52.540;13.290;2023-03-16T10:47:02;25.50;22.90
6439;DHT22;3252;52.540;13.290;2023-03-16T10:49:15;26.40;22.20
6439;DHT22;3252;52.540;13.290;2023-03-16T10:51:21;27.50;22.20
6439;DHT22;3252;52.540;13.290;2023-03-16T10:53:27;28.70;21.90
6439;DHT22;3252;52.540;13.290;2023-03-16T10:55:31;30.80;20.40
6439;DHT22;3252;52.540;13.290;2023-03-16T10:57:36;32.20;19.50
6439;DHT22;3252;52.540;13.290;2023-03-16T10:59:46;32.20;19.00
6439;DHT22;3252;52.540;13.290;2023-03-16T11:01:48;30.00;19.20
6439;DHT22;3252;52.540;13.290;2023-03-16T11:03:52;27.30;21.30
6439;DHT22;3252;52.540;13.290;2023-03-16T11:05:56;28.70;20.70
6439;DHT22;3252;52.540;13.290;2023-03-16T11:08:00;28.20;19.70
6439;DHT22;3252;52.540;13.290;2023-03-16T11:10:12;27.50;20.70
6439;DHT22;3252;52.540;13.290;2023-03-16T11:12:28;25.70;21.40
6439;DHT22;3252;52.540;13.290;2023-03-16T11:14:32;26.90;22.90
6439;DHT22;3252;52.540;13.290;2023-03-16T11:16:40;29.20;21.50
6439;DHT22;3252;52.540;13.290;2023-03-16T11:18:45;27.80;19.80
6439;DHT22;3252;52.540;13.290;2023-03-16T11:20:48;26.10;20.30
6439;DHT22;3252;52.540;13.290;2023-03-16T11:22:52;25.30;21.00
6439;DHT22;3252;52.540;13.290;2023-03-16T11:24:59;25.70;22.70
6439;DHT22;3252;52.540;13.290;2023-03-16T11:27:05;27.80;22.30
6439;DHT22;3252;52.540;13.290;2023-03-16T11:29:18;28.50;21.70
6439;DHT22;3252;52.540;13.290;2023-03-16T11:31:25;28.50;20.10
6439;DHT22;3252;52.540;13.290;2023-03-16T11:33:33;24.30;20.10
6439;DHT22;3252;52.540;13.290;2023-03-16T11:35:41;21.50;21.30
6439;DHT22;3252;52.540;13.290;2023-03-16T11:37:58;20.40;22.50
6439;DHT22;3252;52.540;13.290;2023-03-16T11:40:09;20.30;22.20
6439;DHT22;3252;52.540;13.290;2023-03-16T11:42:26;21.40;21.80
6439;DHT22;3252;52.540;13.290;2023-03-16T11:44:36;21.20;22.30
6439;DHT22;3252;52.540;13.290;2023-03-16T11:46:48;22.80;22.40
6439;DHT22;3252;52.540;13.290;2023-03-16T11:49:04;22.70;23.50
6439;DHT22;3252;52.540;13.290;2023-03-16T11:51:18;23.50;23.30
6439;DHT22;3252;52.540;13.290;2023-03-16T11:53:34;24.00;22.90
6439;DHT22;3252;52.540;13.290;2023-03-16T11:55:42;23.30;23.60
6439;DHT22;3252;52.540;13.290;2023-03-16T11:57:53;23.80;23.20
6439;DHT22;3252;52.540;13.290;2023-03-16T12:00:16;23.50;22.60
6439;DHT22;3252;52.540;13.290;2023-03-16T12:02:42;22.40;21.70
6439;DHT22;3252;52.540;13.290;2023-03-16T12:04:54;20.20;21.90
6439;DHT22;3252;52.540;13.290;2023-03-16T12:07:07;21.30;23.50
6439;DHT22;3252;52.540;13.290;2023-03-16T12:11:47;22.70;22.80
6439;DHT22;3252;52.540;13.290;2023-03-16T12:14:12;22.20;21.70
6439;DHT22;3252;52.540;13.290;2023-03-16T12:16:20;23.10;21.80
6439;DHT22;3252;52.540;13.290;2023-03-16T12:18:31;23.80;22.00
6439;DHT22;3252;52.540;13.290;2023-03-16T12:20:43;23.30;21.40
6439;DHT22;3252;52.540;13.290;2023-03-16T12:22:50;22.60;21.90
6439;DHT22;3252;52.540;13.290;2023-03-16T12:24:54;21.30;21.90
6439;DHT22;3252;52.540;13.290;2023-03-16T12:26:56;20.60;22.30
6439;DHT22;3252;52.540;13.290;2023-03-16T12:29:05;20.60;22.90
6439;DHT22;3252;52.540;13.290;2023-03-16T12:31:12;21.10;23.00
6439;DHT22;3252;52.540;13.290;2023-03-16T12:33:20;21.80;22.70
6439;DHT22;3252;52.540;13.290;2023-03-16T12:35:36;23.00;22.70
6439;DHT22;3252;52.540;13.290;2023-03-16T12:37:44;23.90;22.30
6439;DHT22;3252;52.540;13.290;2023-03-16T12:40:01;21.10;21.40
6439;DHT22;3252;52.540;13.290;2023-03-16T12:42:24;21.00;21.90
6439;DHT22;3252;52.540;13.290;2023-03-16T12:44:37;20.40;22.00
6439;DHT22;3252;52.540;13.290;2023-03-16T12:46:47;20.30;22.30
6439;DHT22;3252;52.540;13.290;2023-03-16T12:48:55;19.80;24.00
6439;DHT22;3252;52.540;13.290;2023-03-16T12:51:00;19.40;23.10
6439;DHT22;3252;52.540;13.290;2023-03-16T12:53:05;17.80;23.00
6439;DHT22;3252;52.540;13.290;2023-03-16T12:55:13;16.70;23.90
6439;DHT22;3252;52.540;13.290;2023-03-16T12:57:16;16.10;24.30
6439;DHT22;3252;52.540;13.290;2023-03-16T12:59:20;15.30;23.50
6439;DHT22;3252;52.540;13.290;2023-03-16T13:01:25;14.40;24.20
6439;DHT22;3252;52.540;13.290;2023-03-16T13:03:29;13.50;24.70
6439;DHT22;3252;52.540;13.290;2023-03-16T13:05:33;13.20;25.40
6439;DHT22;3252;52.540;13.290;2023-03-16T13:07:45;13.50;25.90
6439;DHT22;3252;52.540;13.290;2023-03-16T13:09:52;13.90;25.80
6439;DHT22;3252;52.540;13.290;2023-03-16T13:11:57;14.70;25.70
6439;DHT22;3252;52.540;13.290;2023-03-16T13:14:07;14.70;25.20
6439;DHT22;3252;52.540;13.290;2023-03-16T13:16:24;16.20;25.70
6439;DHT22;3252;52.540;13.290;2023-03-16T13:18:33;19.00;24.20
6439;DHT22;3252;52.540;13.290;2023-03-16T13:20:49;21.00;22.80
6439;DHT22;3252;52.540;13.290;2023-03-16T13:23:08;22.10;22.10
6439;DHT22;3252;52.540;13.290;2023-03-16T13:25:15;23.70;22.20
6439;DHT22;3252;52.540;13.290;2023-03-16T13:27:26;24.30;22.10
6439;DHT22;3252;52.540;13.290;2023-03-16T13:29:30;24.80;21.50
6439;DHT22;3252;52.540;13.290;2023-03-16T13:31:36;22.70;20.50
6439;DHT22;3252;52.540;13.290;2023-03-16T13:33:38;22.60;20.80
6439;DHT22;3252;52.540;13.290;2023-03-16T13:35:41;21.00;20.90
6439;DHT22;3252;52.540;13.290;2023-03-16T13:37:43;20.20;22.30
6439;DHT22;3252;52.540;13.290;2023-03-16T13:39:54;20.10;22.30
6439;DHT22;3252;52.540;13.290;2023-03-16T13:42:01;20.60;22.60